createdAt,value
2018-12-11T00:01:57.868Z,2.80
2018-12-11T00:04:26.248Z,2.80
2018-12-11T00:06:54.599Z,2.70
2018-12-11T00:09:23.584Z,2.70
2018-12-11T00:11:51.924Z,2.80
2018-12-11T00:14:20.276Z,2.80
2018-12-11T00:16:48.616Z,2.90
2018-12-11T00:19:17.004Z,2.90
2018-12-11T00:21:45.320Z,3.00
2018-12-11T00:24:13.772Z,3.10
2018-12-11T00:26:42.123Z,3.10
2018-12-11T00:29:10.528Z,3.20
2018-12-11T00:31:38.885Z,3.10
2018-12-11T00:34:07.232Z,3.20
2018-12-11T00:36:35.589Z,3.20
2018-12-11T00:39:05.992Z,3.10
2018-12-11T00:41:34.355Z,3.10
2018-12-11T00:44:02.804Z,3.10
2018-12-11T00:46:31.171Z,3.10
2018-12-11T00:48:59.613Z,3.00
2018-12-11T00:51:27.960Z,3.10
2018-12-11T00:53:56.325Z,3.10
2018-12-11T00:56:24.728Z,3.10
2018-12-11T00:58:53.088Z,3.10
2018-12-11T01:01:21.404Z,3.20
2018-12-11T01:03:49.915Z,3.20
2018-12-11T01:06:20.247Z,3.20
2018-12-11T01:08:48.575Z,3.20
2018-12-11T01:11:17.164Z,3.30
2018-12-11T01:13:45.502Z,3.20
2018-12-11T01:16:13.855Z,3.20
2018-12-11T01:18:42.406Z,3.30
2018-12-11T01:21:10.742Z,3.20
2018-12-11T01:23:39.122Z,3.20
2018-12-11T01:26:07.476Z,3.20
2018-12-11T01:28:35.805Z,3.20
2018-12-11T01:31:04.205Z,3.30
2018-12-11T01:33:32.511Z,3.30
2018-12-11T01:36:01.046Z,3.30
2018-12-11T01:38:29.384Z,3.30
2018-12-11T01:40:57.748Z,3.30
2018-12-11T01:43:26.057Z,3.30
2018-12-11T01:45:54.433Z,3.40
2018-12-11T01:48:22.755Z,3.40
2018-12-11T01:50:51.083Z,3.40
2018-12-11T01:53:19.445Z,3.40
2018-12-11T01:55:48.063Z,3.40
2018-12-11T01:58:16.752Z,3.40
2018-12-11T02:00:45.075Z,3.40
2018-12-11T02:03:13.448Z,3.40
2018-12-11T02:05:41.818Z,3.50
2018-12-11T02:08:10.157Z,3.50
2018-12-11T02:10:38.564Z,3.50
2018-12-11T02:13:06.895Z,3.50
2018-12-11T02:15:35.481Z,3.50
2018-12-11T02:18:03.835Z,3.50
2018-12-11T02:20:32.178Z,3.50
2018-12-11T02:23:00.526Z,3.50
2018-12-11T02:25:28.863Z,3.50
2018-12-11T02:27:57.188Z,3.50
2018-12-11T02:30:25.603Z,3.50
2018-12-11T02:32:53.932Z,3.50
2018-12-11T02:35:22.311Z,3.50
2018-12-11T02:37:50.648Z,3.50
2018-12-11T02:40:19.023Z,3.50
2018-12-11T02:42:47.364Z,3.50
2018-12-11T02:45:15.721Z,3.50
2018-12-11T02:47:44.627Z,3.50
2018-12-11T02:50:13.038Z,3.60
2018-12-11T02:52:41.379Z,3.60
2018-12-11T02:55:09.717Z,3.60
2018-12-11T02:57:38.221Z,3.50
2018-12-11T03:00:07.940Z,3.50
2018-12-11T03:02:36.369Z,3.50
2018-12-11T03:05:05.029Z,3.50
2018-12-11T03:07:33.465Z,3.50
2018-12-11T03:10:01.804Z,3.50
2018-12-11T03:12:30.142Z,3.50
2018-12-11T03:14:58.813Z,3.60
2018-12-11T03:17:27.151Z,3.60
2018-12-11T03:19:55.572Z,3.60
2018-12-11T03:22:24.142Z,3.50
2018-12-11T03:24:52.471Z,3.60
2018-12-11T03:27:20.889Z,3.60
2018-12-11T03:29:49.484Z,3.60
2018-12-11T03:32:17.911Z,3.60
2018-12-11T03:34:46.349Z,3.60
2018-12-11T03:37:14.668Z,3.50
2018-12-11T03:39:43.039Z,3.50
2018-12-11T03:42:11.444Z,3.50
2018-12-11T03:44:39.800Z,3.50
2018-12-11T03:47:08.119Z,3.50
2018-12-11T03:49:36.701Z,3.40
2018-12-11T03:52:05.048Z,3.50
2018-12-11T03:54:33.380Z,3.50
2018-12-11T03:57:01.767Z,3.60
2018-12-11T03:59:30.103Z,3.60
2018-12-11T04:01:58.473Z,3.60
2018-12-11T04:04:26.829Z,3.60
2018-12-11T04:06:55.454Z,3.60
2018-12-11T04:09:23.791Z,3.70
2018-12-11T04:11:52.575Z,3.60
2018-12-11T04:14:21.314Z,3.60
2018-12-11T04:16:49.653Z,3.60
2018-12-11T04:19:18.159Z,3.70
2018-12-11T04:21:46.517Z,3.60
2018-12-11T04:24:14.857Z,3.60
2018-12-11T04:26:43.398Z,3.60
2018-12-11T04:29:11.725Z,3.60
2018-12-11T04:31:40.091Z,3.60
2018-12-11T04:34:08.411Z,3.60
2018-12-11T04:36:36.751Z,3.60
2018-12-11T04:39:06.609Z,3.60
2018-12-11T04:41:34.964Z,3.50
2018-12-11T04:44:03.413Z,3.50
2018-12-11T04:46:31.919Z,3.50
2018-12-11T04:49:00.463Z,3.50
2018-12-11T04:51:28.799Z,3.50
2018-12-11T04:53:57.140Z,3.50
2018-12-11T04:56:25.499Z,3.50
2018-12-11T04:58:53.809Z,3.40
2018-12-11T05:01:22.292Z,3.40
2018-12-11T05:03:50.636Z,3.40
2018-12-11T05:06:19.038Z,3.40
2018-12-11T05:08:47.355Z,3.40
2018-12-11T05:11:15.678Z,3.40
2018-12-11T05:13:44.116Z,3.50
2018-12-11T05:16:12.464Z,3.50
2018-12-11T05:18:40.956Z,3.50
2018-12-11T05:21:09.506Z,3.40
2018-12-11T05:23:37.832Z,3.40
2018-12-11T05:26:06.171Z,3.40
2018-12-11T05:28:34.556Z,3.30
2018-12-11T05:31:02.883Z,3.40
2018-12-11T05:33:31.204Z,3.40
2018-12-11T05:35:59.589Z,3.40
2018-12-11T05:38:28.051Z,3.40
2018-12-11T05:40:56.384Z,3.50
2018-12-11T05:43:24.899Z,3.40
2018-12-11T05:45:53.223Z,3.50
2018-12-11T05:48:21.561Z,3.40
2018-12-11T05:50:49.967Z,3.40
2018-12-11T05:53:18.364Z,3.40
2018-12-11T05:55:46.725Z,3.40
2018-12-11T05:58:15.098Z,3.40
2018-12-11T06:00:44.828Z,3.30
2018-12-11T06:03:13.152Z,3.20
2018-12-11T06:05:45.661Z,3.20
2018-12-11T06:08:14.012Z,3.30
2018-12-11T06:10:42.380Z,3.30
2018-12-11T06:13:10.712Z,3.30
2018-12-11T06:15:39.071Z,3.30
2018-12-11T06:18:07.408Z,3.30
2018-12-11T06:20:35.924Z,3.40
2018-12-11T06:23:04.271Z,3.40
2018-12-11T06:25:33.135Z,3.40
2018-12-11T06:28:01.466Z,3.40
2018-12-11T06:30:29.835Z,3.40
2018-12-11T06:32:58.167Z,3.40
2018-12-11T06:35:26.498Z,3.40
2018-12-11T06:37:54.864Z,3.50
2018-12-11T06:40:23.435Z,3.50
2018-12-11T06:42:51.796Z,3.50
2018-12-11T06:45:20.265Z,3.40
2018-12-11T06:47:48.604Z,3.40
2018-12-11T06:50:17.039Z,3.40
2018-12-11T06:52:45.403Z,3.50
2018-12-11T06:55:13.856Z,3.50
2018-12-11T06:57:42.223Z,3.50
2018-12-11T07:00:10.571Z,3.50
2018-12-11T07:02:38.955Z,3.50
2018-12-11T07:05:07.459Z,3.50
2018-12-11T07:07:35.920Z,3.60
2018-12-11T07:10:04.924Z,3.50
2018-12-11T07:12:33.276Z,3.50
2018-12-11T07:15:02.181Z,3.40
2018-12-11T07:17:30.554Z,3.40
2018-12-11T07:19:58.872Z,3.50
2018-12-11T07:22:27.256Z,3.50
2018-12-11T07:24:57.613Z,3.50
2018-12-11T07:27:25.994Z,3.50
2018-12-11T07:29:54.648Z,3.50
2018-12-11T07:32:22.973Z,3.60
2018-12-11T07:34:51.551Z,3.50
2018-12-11T07:37:20.088Z,3.50
2018-12-11T07:39:48.612Z,3.50
2018-12-11T07:42:17.065Z,3.50
2018-12-11T07:44:45.444Z,3.50
2018-12-11T07:47:13.829Z,3.60
2018-12-11T07:49:42.203Z,3.60
2018-12-11T07:52:10.544Z,3.60
2018-12-11T07:54:38.933Z,3.60
2018-12-11T07:57:07.264Z,3.70
2018-12-11T07:59:35.681Z,3.60
2018-12-11T08:02:04.484Z,3.60
2018-12-11T08:04:32.834Z,3.70
2018-12-11T08:07:01.271Z,3.70
2018-12-11T08:09:29.621Z,3.70
2018-12-11T08:11:58.012Z,3.70
2018-12-11T08:14:26.367Z,3.60
2018-12-11T08:16:54.932Z,3.60
2018-12-11T08:19:23.502Z,3.70
2018-12-11T08:21:52.148Z,3.70
2018-12-11T08:24:20.481Z,3.80
2018-12-11T08:26:48.884Z,3.80
2018-12-11T08:29:17.250Z,3.90
2018-12-11T08:31:45.611Z,3.90
2018-12-11T08:34:14.052Z,3.90
2018-12-11T08:36:42.628Z,4.00
2018-12-11T08:39:11.002Z,3.90
2018-12-11T08:41:39.368Z,4.00
2018-12-11T08:44:07.828Z,4.00
2018-12-11T08:46:36.200Z,4.00
2018-12-11T08:49:04.544Z,3.90
2018-12-11T08:51:32.943Z,3.80
2018-12-11T08:54:01.288Z,4.00
2018-12-11T08:56:29.915Z,4.00
2018-12-11T08:58:58.292Z,3.90
2018-12-11T09:01:27.320Z,4.00
2018-12-11T09:03:56.043Z,4.00
2018-12-11T09:06:24.402Z,4.00
2018-12-11T09:08:52.780Z,4.10
2018-12-11T09:11:21.130Z,4.20
2018-12-11T09:13:49.500Z,4.20
2018-12-11T09:16:17.849Z,4.20
2018-12-11T09:18:46.222Z,4.30
2018-12-11T09:21:14.672Z,4.20
2018-12-11T09:23:43.232Z,4.20
2018-12-11T09:26:11.576Z,4.20
2018-12-11T09:28:40.063Z,4.20
2018-12-11T09:31:08.397Z,4.20
2018-12-11T09:33:36.765Z,4.20
2018-12-11T09:36:05.177Z,4.20
2018-12-11T09:38:33.618Z,4.10
2018-12-11T09:41:02.464Z,4.10
2018-12-11T09:43:30.831Z,4.20
2018-12-11T09:45:59.552Z,4.20
2018-12-11T09:48:27.964Z,4.30
2018-12-11T09:50:56.323Z,4.30
2018-12-11T09:53:24.715Z,4.30
2018-12-11T09:55:58.418Z,4.20
2018-12-11T09:58:26.851Z,4.20
2018-12-11T10:00:55.288Z,4.20
2018-12-11T10:03:23.702Z,4.20
2018-12-11T10:05:52.068Z,4.10
2018-12-11T10:08:20.615Z,4.10
2018-12-11T10:10:48.973Z,4.10
2018-12-11T10:13:17.288Z,4.10
2018-12-11T10:15:45.661Z,4.10
2018-12-11T10:18:14.292Z,4.20
2018-12-11T10:20:42.741Z,4.30
2018-12-11T10:23:11.684Z,4.20
2018-12-11T10:25:40.109Z,4.40
2018-12-11T10:28:08.445Z,4.50
2018-12-11T10:30:42.254Z,4.50
2018-12-11T10:33:10.597Z,4.60
2018-12-11T10:35:38.956Z,4.50
2018-12-11T10:38:07.382Z,4.50
2018-12-11T10:40:35.737Z,4.60
2018-12-11T10:43:04.303Z,4.60
2018-12-11T10:45:32.757Z,4.60
2018-12-11T10:48:01.112Z,4.60
2018-12-11T10:50:29.502Z,4.60
2018-12-11T10:52:57.854Z,4.70
2018-12-11T10:55:26.301Z,4.70
2018-12-11T10:57:54.671Z,4.60
2018-12-11T11:00:29.195Z,4.60
2018-12-11T11:03:05.150Z,4.50
2018-12-11T11:05:33.590Z,4.50
2018-12-11T11:08:01.951Z,4.60
2018-12-11T11:10:30.348Z,4.60
2018-12-11T11:12:58.808Z,4.60
2018-12-11T11:15:27.221Z,4.60
2018-12-11T11:17:55.742Z,4.60
2018-12-11T11:20:24.143Z,4.70
2018-12-11T11:22:52.626Z,4.70
2018-12-11T11:25:21.076Z,4.80
2018-12-11T11:27:49.684Z,4.80
2018-12-11T11:30:18.291Z,4.80
2018-12-11T11:32:46.660Z,4.80
2018-12-11T11:35:15.036Z,4.70
2018-12-11T11:37:43.400Z,4.70
2018-12-11T11:40:11.795Z,4.70
2018-12-11T11:42:40.342Z,4.80
2018-12-11T11:45:09.785Z,4.70
2018-12-11T11:47:38.313Z,4.60
2018-12-11T11:50:09.409Z,4.70
2018-12-11T11:52:37.853Z,4.80
2018-12-11T11:55:07.184Z,4.70
2018-12-11T11:57:35.555Z,4.80
2018-12-11T12:00:06.100Z,4.90
2018-12-11T12:02:34.508Z,4.90
2018-12-11T12:05:03.036Z,5.00
2018-12-11T12:07:31.409Z,5.10
2018-12-11T12:09:59.796Z,5.20
2018-12-11T12:12:28.360Z,5.20
2018-12-11T12:14:56.788Z,5.10
2018-12-11T12:17:25.185Z,5.20
2018-12-11T12:19:53.737Z,5.10
2018-12-11T12:22:22.187Z,5.20
2018-12-11T12:24:50.631Z,5.10
2018-12-11T12:27:18.992Z,5.00
2018-12-11T12:29:47.377Z,5.00
2018-12-11T12:32:15.778Z,5.00
2018-12-11T12:34:44.141Z,5.20
2018-12-11T12:37:12.493Z,5.20
2018-12-11T12:39:40.926Z,5.30
2018-12-11T12:42:09.301Z,5.30
2018-12-11T12:44:37.743Z,5.30
2018-12-11T12:47:06.343Z,5.20
2018-12-11T12:49:34.712Z,5.20
2018-12-11T12:52:03.087Z,4.90
2018-12-11T12:54:31.684Z,4.90
2018-12-11T12:57:00.036Z,4.80
2018-12-11T12:59:28.400Z,4.90
2018-12-11T13:01:57.229Z,4.90
2018-12-11T13:04:25.647Z,4.80
2018-12-11T13:06:54.003Z,4.90
2018-12-11T13:09:23.364Z,4.80
2018-12-11T13:11:51.844Z,4.80
2018-12-11T13:14:20.210Z,4.60
2018-12-11T13:16:48.553Z,4.60
2018-12-11T13:19:16.899Z,4.70
2018-12-11T13:21:45.369Z,4.40
2018-12-11T13:24:13.756Z,4.30
2018-12-11T13:26:42.106Z,4.30
2018-12-11T13:29:10.714Z,4.30
2018-12-11T13:31:39.088Z,4.30
2018-12-11T13:34:07.718Z,4.30
2018-12-11T13:36:36.185Z,4.40
2018-12-11T13:39:06.468Z,4.40
2018-12-11T13:41:34.837Z,4.40
2018-12-11T13:44:03.872Z,4.50
2018-12-11T13:46:32.628Z,4.50
2018-12-11T13:49:01.217Z,4.60
2018-12-11T13:51:29.598Z,4.60
2018-12-11T13:53:58.031Z,4.70
2018-12-11T13:56:26.448Z,4.70
2018-12-11T13:58:54.809Z,4.70
2018-12-11T14:01:23.187Z,4.70
2018-12-11T14:03:51.628Z,4.70
2018-12-11T14:06:20.079Z,4.60
2018-12-11T14:08:48.412Z,4.60
2018-12-11T14:11:16.844Z,4.80
2018-12-11T14:13:45.300Z,4.80
2018-12-11T14:16:13.658Z,4.80
2018-12-11T14:18:41.996Z,5.00
2018-12-11T14:21:10.400Z,5.10
2018-12-11T14:23:38.835Z,5.00
2018-12-11T14:26:07.293Z,5.00
2018-12-11T14:28:35.701Z,4.90
2018-12-11T14:31:04.074Z,4.90
2018-12-11T14:33:32.467Z,4.80
2018-12-11T14:36:00.818Z,4.60
2018-12-11T14:38:29.169Z,4.50
2018-12-11T14:40:57.540Z,4.60
2018-12-11T14:43:25.872Z,4.60
2018-12-11T14:45:54.252Z,4.60
2018-12-11T14:48:22.598Z,4.60
2018-12-11T14:50:51.655Z,4.60
2018-12-11T14:53:20.003Z,4.70
2018-12-11T14:55:48.341Z,4.70
2018-12-11T14:58:16.719Z,4.70
2018-12-11T15:00:45.272Z,4.60
2018-12-11T15:03:13.884Z,4.60
2018-12-11T15:05:42.355Z,4.60
2018-12-11T15:08:10.980Z,4.70
2018-12-11T15:10:39.613Z,4.70
2018-12-11T15:13:07.972Z,4.80
2018-12-11T15:15:36.320Z,4.70
2018-12-11T15:18:04.693Z,4.60
2018-12-11T15:20:33.196Z,4.60
2018-12-11T15:23:01.536Z,4.50
2018-12-11T15:25:29.912Z,4.50
2018-12-11T15:27:58.245Z,4.50
2018-12-11T15:30:26.673Z,4.50
2018-12-11T15:32:55.026Z,4.50
2018-12-11T15:35:23.581Z,4.50
2018-12-11T15:37:53.480Z,4.60
2018-12-11T15:40:22.009Z,4.50
2018-12-11T15:42:50.586Z,4.50
2018-12-11T15:45:20.608Z,4.50
2018-12-11T15:47:48.981Z,4.40
2018-12-11T15:50:17.551Z,4.40
2018-12-11T15:52:45.893Z,4.40
2018-12-11T15:55:14.215Z,4.40
2018-12-11T15:57:42.563Z,4.30
2018-12-11T16:00:11.283Z,4.20
2018-12-11T16:02:39.748Z,4.20
2018-12-11T16:05:08.213Z,4.20
2018-12-11T16:07:36.546Z,4.30
2018-12-11T16:10:06.444Z,4.40
2018-12-11T16:12:34.792Z,4.30
2018-12-11T16:15:03.128Z,4.30
2018-12-11T16:17:31.549Z,4.30
2018-12-11T16:19:59.920Z,4.10
2018-12-11T16:22:28.328Z,4.00
2018-12-11T16:24:57.050Z,3.90
2018-12-11T16:27:26.476Z,3.80
2018-12-11T16:29:54.927Z,3.80
2018-12-11T16:32:23.411Z,3.80
2018-12-11T16:34:52.024Z,3.80
2018-12-11T16:37:20.732Z,3.80
2018-12-11T16:39:49.116Z,3.80
2018-12-11T16:42:17.494Z,3.90
2018-12-11T16:44:45.880Z,3.90
2018-12-11T16:47:14.320Z,4.00
2018-12-11T16:49:42.720Z,4.00
2018-12-11T16:52:11.113Z,4.00
2018-12-11T16:54:39.447Z,4.00
2018-12-11T16:57:08.928Z,4.00
2018-12-11T16:59:37.328Z,4.20
2018-12-11T17:02:05.720Z,4.10
2018-12-11T17:04:34.039Z,4.10
2018-12-11T17:07:02.391Z,4.10
2018-12-11T17:09:30.736Z,4.20
2018-12-11T17:11:59.467Z,4.20
2018-12-11T17:14:28.029Z,4.10
2018-12-11T17:16:56.416Z,4.10
2018-12-11T17:19:24.941Z,4.10
2018-12-11T17:21:53.331Z,4.10
2018-12-11T17:24:21.690Z,4.10
2018-12-11T17:26:50.077Z,4.10
2018-12-11T17:29:23.971Z,4.00
2018-12-11T17:31:48.827Z,4.10
2018-12-11T17:34:17.147Z,4.10
2018-12-11T17:36:45.714Z,4.10
2018-12-11T17:39:14.365Z,4.00
2018-12-11T17:41:42.847Z,3.90
2018-12-11T17:44:11.235Z,3.90
2018-12-11T17:46:39.592Z,3.90
2018-12-11T17:49:08.113Z,4.00
2018-12-11T17:51:36.468Z,4.00
2018-12-11T17:54:04.807Z,4.00
2018-12-11T17:56:33.861Z,3.90
2018-12-11T17:59:02.204Z,3.90
2018-12-11T18:01:32.997Z,3.90
2018-12-11T18:04:01.484Z,3.90
2018-12-11T18:06:29.871Z,4.00
2018-12-11T18:08:58.240Z,4.00
2018-12-11T18:11:26.654Z,4.00
2018-12-11T18:13:55.208Z,4.00
2018-12-11T18:16:23.629Z,4.00
2018-12-11T18:18:52.079Z,4.00
2018-12-11T18:21:20.449Z,3.90
2018-12-11T18:23:48.865Z,3.90
2018-12-11T18:26:17.448Z,3.90
2018-12-11T18:28:45.831Z,3.90
2018-12-11T18:31:14.189Z,3.90
2018-12-11T18:33:42.636Z,3.90
2018-12-11T18:36:10.994Z,3.80
2018-12-11T18:38:39.426Z,3.90
2018-12-11T18:41:07.908Z,3.90
2018-12-11T18:43:36.281Z,3.90
2018-12-11T18:46:04.614Z,3.90
2018-12-11T18:48:33.125Z,3.90
2018-12-11T18:51:01.592Z,3.90
2018-12-11T18:53:30.005Z,3.90
2018-12-11T18:55:58.467Z,3.80
2018-12-11T18:58:26.849Z,3.70
2018-12-11T19:00:55.230Z,3.70
2018-12-11T19:03:23.976Z,3.70
2018-12-11T19:05:52.299Z,3.70
2018-12-11T19:08:20.714Z,3.60
2018-12-11T19:10:49.332Z,3.50
2018-12-11T19:13:17.751Z,3.50
2018-12-11T19:15:46.151Z,3.50
2018-12-11T19:18:14.644Z,3.50
2018-12-11T19:20:42.989Z,3.40
2018-12-11T19:23:18.989Z,3.40
2018-12-11T19:25:47.323Z,3.40
2018-12-11T19:28:15.715Z,3.40
2018-12-11T19:30:44.090Z,3.30
2018-12-11T19:33:12.485Z,3.20
2018-12-11T19:35:42.224Z,3.30
2018-12-11T19:38:10.622Z,3.20
2018-12-11T19:40:41.195Z,3.10
2018-12-11T19:43:09.484Z,2.90
2018-12-11T19:45:37.896Z,2.90
2018-12-11T19:48:06.315Z,2.90
2018-12-11T19:50:34.659Z,3.00
2018-12-11T19:53:03.250Z,3.10
2018-12-11T19:55:31.727Z,3.10
2018-12-11T19:58:00.089Z,3.10
2018-12-11T20:00:28.509Z,3.10
2018-12-11T20:02:57.897Z,2.90
2018-12-11T20:05:26.280Z,3.00
2018-12-11T20:07:54.925Z,3.00
2018-12-11T20:10:27.938Z,3.10
2018-12-11T20:12:56.357Z,3.10
2018-12-11T20:15:24.859Z,3.00
2018-12-11T20:17:53.242Z,2.90
2018-12-11T20:20:29.483Z,2.90
2018-12-11T20:22:59.237Z,2.90
2018-12-11T20:25:27.664Z,2.80
2018-12-11T20:27:56.155Z,2.90
2018-12-11T20:30:24.516Z,3.00
2018-12-11T20:32:53.000Z,3.10
2018-12-11T20:35:21.390Z,2.90
2018-12-11T20:37:49.864Z,2.90
2018-12-11T20:40:19.309Z,2.90
2018-12-11T20:42:47.678Z,2.80
2018-12-11T20:45:16.125Z,2.70
2018-12-11T20:47:44.475Z,2.60
2018-12-11T20:50:12.939Z,2.40
2018-12-11T20:52:41.292Z,2.50
2018-12-11T20:55:09.708Z,2.50
2018-12-11T20:57:38.166Z,2.60
2018-12-11T21:00:08.922Z,2.70
2018-12-11T21:02:37.468Z,2.60
2018-12-11T21:05:06.664Z,2.60
2018-12-11T21:07:35.713Z,2.60
2018-12-11T21:10:06.313Z,2.60
2018-12-11T21:12:34.827Z,2.60
2018-12-11T21:15:03.204Z,2.50
2018-12-11T21:17:31.605Z,2.50
2018-12-11T21:19:59.991Z,2.50
2018-12-11T21:22:29.784Z,2.50
2018-12-11T21:24:58.192Z,2.40
2018-12-11T21:27:26.646Z,2.30
2018-12-11T21:29:55.140Z,2.30
2018-12-11T21:32:23.496Z,2.40
2018-12-11T21:34:51.848Z,2.40
2018-12-11T21:37:20.389Z,2.30
2018-12-11T21:39:48.862Z,2.30
2018-12-11T21:42:17.615Z,2.30
2018-12-11T21:44:46.299Z,2.30
2018-12-11T21:47:14.699Z,2.30
2018-12-11T21:49:43.130Z,2.20
2018-12-11T21:52:11.546Z,2.30
2018-12-11T21:54:40.163Z,2.20
2018-12-11T21:57:08.489Z,2.10
2018-12-11T21:59:37.382Z,1.90
2018-12-11T22:02:05.805Z,1.90
2018-12-11T22:04:34.173Z,1.90
2018-12-11T22:07:02.585Z,1.80
2018-12-11T22:09:31.030Z,1.80
2018-12-11T22:11:59.528Z,1.90
2018-12-11T22:14:27.932Z,1.90
2018-12-11T22:16:56.449Z,1.90
2018-12-11T22:19:24.823Z,1.90
2018-12-11T22:21:53.198Z,1.90
2018-12-11T22:24:21.657Z,2.00
2018-12-11T22:26:50.009Z,2.10
2018-12-11T22:29:19.437Z,2.20
2018-12-11T22:31:47.896Z,2.30
2018-12-11T22:34:16.233Z,2.30
2018-12-11T22:36:44.895Z,2.30
2018-12-11T22:39:13.242Z,2.30
2018-12-11T22:41:41.703Z,2.40
2018-12-11T22:44:10.235Z,2.30
2018-12-11T22:46:38.983Z,2.40
2018-12-11T22:49:07.384Z,2.30
2018-12-11T22:51:35.785Z,2.30
2018-12-11T22:54:04.514Z,2.30
2018-12-11T22:56:32.880Z,2.20
2018-12-11T22:59:01.277Z,2.20
2018-12-11T23:01:29.620Z,2.20
2018-12-11T23:03:58.174Z,2.20
2018-12-11T23:06:26.524Z,2.20
2018-12-11T23:08:54.888Z,2.20
2018-12-11T23:11:23.294Z,2.20
2018-12-11T23:13:51.638Z,2.20
2018-12-11T23:16:20.007Z,2.20
2018-12-11T23:18:48.351Z,2.30
2018-12-11T23:21:16.927Z,2.30
2018-12-11T23:23:45.293Z,2.30
2018-12-11T23:26:13.661Z,2.30
2018-12-11T23:28:42.039Z,2.20
2018-12-11T23:31:10.759Z,2.20
2018-12-11T23:33:39.107Z,2.30
2018-12-11T23:36:07.507Z,2.30
2018-12-11T23:38:36.033Z,2.40
2018-12-11T23:41:04.404Z,2.50
2018-12-11T23:43:32.760Z,2.50
2018-12-11T23:46:01.132Z,2.60
2018-12-11T23:48:29.472Z,2.50
2018-12-11T23:50:57.948Z,2.60
2018-12-11T23:53:26.403Z,2.60
2018-12-11T23:55:54.855Z,2.70
2018-12-11T23:58:24.124Z,2.60
